createdAt,value
2018-09-12T00:05:04.498Z,16.07
2018-09-12T00:10:59.449Z,11.92
2018-09-12T00:16:54.433Z,18.73
2018-09-12T00:22:49.471Z,10.02
2018-09-12T00:28:44.433Z,13.03
2018-09-12T00:34:39.437Z,15.23
2018-09-12T00:40:34.451Z,13.14
2018-09-12T00:46:29.441Z,12.09
2018-09-12T00:52:24.465Z,16.59
2018-09-12T00:58:19.455Z,11.95
2018-09-12T01:04:14.490Z,9.37
2018-09-12T01:10:09.477Z,12.18
2018-09-12T01:16:04.461Z,12.26
2018-09-12T01:21:59.484Z,13.7
2018-09-12T01:27:54.490Z,11.01
2018-09-12T01:33:49.466Z,12.32
2018-09-12T01:39:44.476Z,12.45
2018-09-12T01:45:39.530Z,13.21
2018-09-12T01:51:34.493Z,13.45
2018-09-12T01:57:29.532Z,12.03
2018-09-12T02:03:24.533Z,11.45
2018-09-12T02:09:19.502Z,11.13
2018-09-12T02:15:14.500Z,15.34
2018-09-12T02:21:09.489Z,10.97
2018-09-12T02:27:04.532Z,14.79
2018-09-12T02:32:59.595Z,12.6
2018-09-12T02:38:54.561Z,17.91
2018-09-12T02:44:49.520Z,17.82
2018-09-12T02:50:44.539Z,24.3
2018-09-12T02:56:39.570Z,18.22
2018-09-12T03:02:34.560Z,23.69
2018-09-12T03:08:29.536Z,19.61
2018-09-12T03:14:24.541Z,15.44
2018-09-12T03:20:19.571Z,17.48
2018-09-12T03:26:14.561Z,18.31
2018-09-12T03:32:09.551Z,22.89
2018-09-12T03:38:04.550Z,19.18
2018-09-12T03:43:59.561Z,17.64
2018-09-12T03:49:54.553Z,14.26
2018-09-12T03:55:49.591Z,13.13
2018-09-12T04:01:44.594Z,19.06
2018-09-12T04:07:39.564Z,19.39
2018-09-12T04:13:34.584Z,11.66
2018-09-12T04:19:29.575Z,16.42
2018-09-12T04:25:24.581Z,18.24
2018-09-12T04:31:19.579Z,12.65
2018-09-12T04:37:14.575Z,11.54
2018-09-12T04:43:09.601Z,13.41
2018-09-12T04:49:04.603Z,12.63
2018-09-12T04:54:59.609Z,14.68
2018-09-12T05:00:54.668Z,15.02
2018-09-12T05:06:49.589Z,17.9
2018-09-12T05:12:44.620Z,19.06
2018-09-12T05:18:39.612Z,23.8
2018-09-12T05:24:34.617Z,17.17
2018-09-12T05:30:29.632Z,16.02
2018-09-12T05:36:24.660Z,18.04
2018-09-12T05:42:19.648Z,19.66
2018-09-12T05:48:14.734Z,17.7
2018-09-12T05:54:09.639Z,14.87
2018-09-12T06:00:04.826Z,40.6
2018-09-12T06:05:59.641Z,32.74
2018-09-12T06:11:54.654Z,24.15
2018-09-12T06:17:49.677Z,25.73
2018-09-12T06:23:44.719Z,26.43
2018-09-12T06:29:39.779Z,25.35
2018-09-12T06:35:34.683Z,22.69
2018-09-12T06:41:29.660Z,27.63
2018-09-12T06:47:24.688Z,28.01
2018-09-12T06:53:19.676Z,28.75
2018-09-12T06:59:14.673Z,27.62
2018-09-12T07:05:09.731Z,30.99
2018-09-12T07:11:04.734Z,21.58
2018-09-12T07:16:59.740Z,20.97
2018-09-12T07:22:54.685Z,25.42
2018-09-12T07:28:49.673Z,18.44
2018-09-12T07:34:44.708Z,17.19
2018-09-12T07:40:39.721Z,12.78
2018-09-12T07:46:34.758Z,10.43
2018-09-12T07:52:29.719Z,8.8
2018-09-12T07:58:24.716Z,10.86
2018-09-12T08:04:19.695Z,7.39
2018-09-12T08:10:14.733Z,7.85
2018-09-12T08:16:09.745Z,7.98
2018-09-12T08:22:04.753Z,8.26
2018-09-12T08:27:59.734Z,14.83
2018-09-12T08:33:54.797Z,15.36
2018-09-12T08:39:49.725Z,12.66
2018-09-12T08:45:44.846Z,8.83
2018-09-12T08:51:39.755Z,10.31
2018-09-12T08:57:34.735Z,12.43
2018-09-12T09:03:29.766Z,15.09
2018-09-12T09:09:24.772Z,8.57
2018-09-12T09:15:19.751Z,8.9
2018-09-12T09:21:14.764Z,10.33
2018-09-12T09:27:09.801Z,15.2
2018-09-12T09:33:04.789Z,16.13
2018-09-12T09:38:59.796Z,26.18
2018-09-12T09:44:54.805Z,14.56
2018-09-12T09:50:49.782Z,12.8
2018-09-12T09:56:44.815Z,14.3
2018-09-12T10:02:39.855Z,10.63
2018-09-12T10:08:34.770Z,14.34
2018-09-12T10:14:29.787Z,10.77
2018-09-12T10:20:24.794Z,11.83
2018-09-12T10:26:19.798Z,8.22
2018-09-12T10:32:14.826Z,8.29
2018-09-12T10:38:09.805Z,8.83
2018-09-12T10:44:04.816Z,9.56
2018-09-12T10:49:59.824Z,7.19
2018-09-12T10:55:54.816Z,6.64
2018-09-12T11:01:49.824Z,7.8
2018-09-12T11:07:44.868Z,9.08
2018-09-12T11:13:39.841Z,10.53
2018-09-12T11:19:34.866Z,7.27
2018-09-12T11:25:29.844Z,4.66
2018-09-12T11:31:24.871Z,9.72
2018-09-12T11:37:19.831Z,5.43
2018-09-12T11:43:14.859Z,7.2
2018-09-12T11:49:09.907Z,4.68
2018-09-12T11:55:04.922Z,2.8
2018-09-12T12:00:59.857Z,4.76
2018-09-12T12:06:54.871Z,7.21
2018-09-12T12:12:49.863Z,6.42
2018-09-12T12:18:44.885Z,3.02
2018-09-12T12:24:39.876Z,3.9
2018-09-12T12:30:34.914Z,6.92
2018-09-12T12:36:29.878Z,2.96
2018-09-12T12:42:24.876Z,2.27
2018-09-12T12:48:19.884Z,2.53
2018-09-12T12:54:14.926Z,2.83
2018-09-12T13:00:09.887Z,5.76
2018-09-12T13:06:04.903Z,2.7
2018-09-12T13:11:59.890Z,3.73
2018-09-12T13:17:54.918Z,2.09
2018-09-12T13:23:49.914Z,1.9
2018-09-12T13:29:44.934Z,3.09
2018-09-12T13:35:39.933Z,3.68
2018-09-12T13:41:34.934Z,3.12
2018-09-12T13:47:29.934Z,8.7
2018-09-12T13:53:24.935Z,5.03
2018-09-12T13:59:19.951Z,6.82
2018-09-12T14:05:14.935Z,9.75
2018-09-12T14:11:09.965Z,6.54
2018-09-12T14:17:04.953Z,7.87
2018-09-12T14:22:59.965Z,4.72
2018-09-12T14:28:54.969Z,5.11
2018-09-12T14:34:49.960Z,5.52
2018-09-12T14:40:44.986Z,5.35
2018-09-12T14:46:39.949Z,6.39
2018-09-12T14:52:34.984Z,4.79
2018-09-12T14:58:29.986Z,4.75
2018-09-12T15:04:24.958Z,5.32
2018-09-12T15:10:20.060Z,5.19
2018-09-12T15:16:14.977Z,4.88
2018-09-12T15:22:10.017Z,5.36
2018-09-12T15:28:04.996Z,4.79
2018-09-12T15:34:00.003Z,5.85
2018-09-12T15:39:54.995Z,4.43
2018-09-12T15:45:49.997Z,8.75
2018-09-12T15:51:45.026Z,4.01
2018-09-12T15:57:40.103Z,4.13
2018-09-12T16:03:35.052Z,15.84
2018-09-12T16:09:30.016Z,44.11
2018-09-12T16:15:25.026Z,57.98
2018-09-12T16:21:20.046Z,61.92
2018-09-12T16:27:15.030Z,27.91
2018-09-12T16:33:10.033Z,13.98
2018-09-12T16:39:05.068Z,9.65
2018-09-12T16:45:00.056Z,9.69
2018-09-12T16:50:55.042Z,4.93
2018-09-12T16:56:50.183Z,9.69
2018-09-12T17:02:45.101Z,8.27
2018-09-12T17:08:40.052Z,14.87
2018-09-12T17:14:35.104Z,6.04
2018-09-12T17:20:30.060Z,8.53
2018-09-12T17:26:25.061Z,8.93
2018-09-12T17:32:20.160Z,34.59
2018-09-12T17:38:15.095Z,14.3
2018-09-12T17:44:10.127Z,23.6
2018-09-12T17:50:05.089Z,26.37
2018-09-12T17:56:00.109Z,9.17
2018-09-12T18:01:55.120Z,11.44
2018-09-12T18:07:50.142Z,16.16
2018-09-12T18:13:45.098Z,9.18
2018-09-12T18:19:40.134Z,8.83
2018-09-12T18:25:35.124Z,9.5
2018-09-12T18:31:30.106Z,9.64
2018-09-12T18:37:25.129Z,9.17
2018-09-12T18:43:20.152Z,7.78
2018-09-12T18:49:15.124Z,9.13
2018-09-12T18:55:10.148Z,9.75
2018-09-12T19:01:05.123Z,7.79
2018-09-12T19:07:00.280Z,10.27
2018-09-12T19:12:55.169Z,6.51
2018-09-12T19:18:50.145Z,7.73
2018-09-12T19:24:45.160Z,8.65
2018-09-12T19:30:40.180Z,9.02
2018-09-12T19:36:35.161Z,6.03
2018-09-12T19:42:30.190Z,13.84
2018-09-12T19:48:25.159Z,8.93
2018-09-12T19:54:20.197Z,8.91
2018-09-12T20:00:15.224Z,8.26
2018-09-12T20:06:10.180Z,14.81
2018-09-12T20:12:05.183Z,10
2018-09-12T20:18:00.236Z,11.68
2018-09-12T20:23:55.362Z,13.12
2018-09-12T20:29:50.249Z,12.8
2018-09-12T20:35:45.307Z,11.63
2018-09-12T20:41:40.195Z,9.07
2018-09-12T20:47:35.212Z,19.45
2018-09-12T20:53:30.281Z,11.61
2018-09-12T20:59:25.215Z,20.82
2018-09-12T21:05:20.265Z,14.03
2018-09-12T21:11:15.197Z,12.87
2018-09-12T21:17:10.221Z,15.69
2018-09-12T21:23:05.251Z,17.72
2018-09-12T21:29:00.310Z,15.63
2018-09-12T21:34:55.232Z,18.06
2018-09-12T21:40:50.220Z,14.66
2018-09-12T21:46:45.225Z,18.18
2018-09-12T21:52:40.271Z,18.64
2018-09-12T21:58:35.248Z,24.64
2018-09-12T22:04:30.258Z,18.08
2018-09-12T22:10:25.232Z,22.36
2018-09-12T22:16:20.272Z,15.75
2018-09-12T22:22:15.258Z,20.31
2018-09-12T22:28:10.308Z,23.35
2018-09-12T22:34:05.284Z,20.8
2018-09-12T22:40:00.279Z,20.38
2018-09-12T22:45:55.264Z,23.24
2018-09-12T22:51:50.305Z,20.3
2018-09-12T22:57:45.292Z,21.55
2018-09-12T23:03:40.280Z,23.2
2018-09-12T23:09:35.308Z,23.82
2018-09-12T23:15:30.306Z,18.05
2018-09-12T23:21:25.324Z,21.77
2018-09-12T23:27:20.313Z,21.31
2018-09-12T23:33:15.305Z,18.36
2018-09-12T23:39:10.313Z,18.98
2018-09-12T23:45:05.311Z,22.09
2018-09-12T23:51:00.332Z,18.64
2018-09-12T23:56:55.307Z,25.02
